sensor_id;sensor_type;location;lat;lon;timestamp;pressure;altitude;pressure_sealevel;temperature;humidity
9423;BME280;65863;49.506;10.400;2023-11-19T00:01:52;97804.78;;;3.99;100.00
9423;BME280;65863;49.506;10.400;2023-11-19T00:04:37;97893.00;;;4.76;100.00
9423;BME280;65863;49.506;10.400;2023-11-19T00:07:22;98035.44;;;5.77;100.00
9423;BME280;65863;49.506;10.400;2023-11-19T00:10:17;97964.97;;;5.27;100.00
9423;BME280;65863;49.506;10.400;2023-11-19T00:13:04;98011.78;;;5.59;100.00
9423;BME280;65863;49.506;10.400;2023-11-19T00:15:48;97870.63;;;4.57;100.00
9423;BME280;65863;49.506;10.400;2023-11-19T00:18:33;97983.97;;;5.54;100.00
9423;BME280;65863;49.506;10.400;2023-11-19T00:21:17;97931.09;;;5.23;100.00
9423;BME280;65863;49.506;10.400;2023-11-19T00:24:01;98023.09;;;5.67;100.00
9423;BME280;65863;49.506;10.400;2023-11-19T00:26:45;97869.53;;;4.66;100.00
9423;BME280;65863;49.506;10.400;2023-11-19T00:29:29;97889.09;;;4.91;100.00
9423;BME280;65863;49.506;10.400;2023-11-19T00:32:13;97925.59;;;5.42;100.00
9423;BME280;65863;49.506;10.400;2023-11-19T00:34:58;97873.81;;;5.03;100.00
9423;BME280;65863;49.506;10.400;2023-11-19T00:37:42;97985.03;;;5.75;100.00
9423;BME280;65863;49.506;10.400;2023-11-19T00:40:29;97835.13;;;4.69;100.00
9423;BME280;65863;49.506;10.400;2023-11-19T00:43:14;97904.81;;;5.18;100.00
9423;BME280;65863;49.506;10.400;2023-11-19T00:45:58;97846.34;;;4.94;100.00
9423;BME280;65863;49.506;10.400;2023-11-19T00:48:42;97953.13;;;5.76;100.00
9423;BME280;65863;49.506;10.400;2023-11-19T00:51:26;97984.03;;;6.03;100.00
9423;BME280;65863;49.506;10.400;2023-11-19T00:54:10;97967.53;;;6.05;100.00
9423;BME280;65863;49.506;10.400;2023-11-19T00:56:54;97945.56;;;5.71;100.00
9423;BME280;65863;49.506;10.400;2023-11-19T00:59:42;97986.84;;;6.03;100.00
9423;BME280;65863;49.506;10.400;2023-11-19T01:02:26;97891.16;;;5.45;100.00
9423;BME280;65863;49.506;10.400;2023-11-19T01:05:10;97881.22;;;5.50;100.00
9423;BME280;65863;49.506;10.400;2023-11-19T01:07:58;97989.94;;;5.94;100.00
9423;BME280;65863;49.506;10.400;2023-11-19T01:10:42;97883.38;;;5.38;100.00
9423;BME280;65863;49.506;10.400;2023-11-19T01:13:27;97852.16;;;5.21;100.00
9423;BME280;65863;49.506;10.400;2023-11-19T01:16:12;97788.03;;;4.82;100.00
9423;BME280;65863;49.506;10.400;2023-11-19T01:18:56;97806.78;;;4.76;100.00
9423;BME280;65863;49.506;10.400;2023-11-19T01:21:40;97884.00;;;5.50;100.00
9423;BME280;65863;49.506;10.400;2023-11-19T01:24:24;97870.19;;;5.39;100.00
9423;BME280;65863;49.506;10.400;2023-11-19T01:27:12;97925.69;;;5.86;100.00
9423;BME280;65863;49.506;10.400;2023-11-19T01:29:56;97879.59;;;5.85;100.00
9423;BME280;65863;49.506;10.400;2023-11-19T01:32:40;97762.25;;;5.07;100.00
9423;BME280;65863;49.506;10.400;2023-11-19T01:35:24;97825.84;;;5.46;100.00
9423;BME280;65863;49.506;10.400;2023-11-19T01:38:08;97914.56;;;6.30;100.00
9423;BME280;65863;49.506;10.400;2023-11-19T01:40:59;97888.59;;;5.97;100.00
9423;BME280;65863;49.506;10.400;2023-11-19T01:43:43;97847.03;;;5.99;100.00
9423;BME280;65863;49.506;10.400;2023-11-19T01:46:31;97919.22;;;6.41;100.00
9423;BME280;65863;49.506;10.400;2023-11-19T01:49:18;97764.28;;;5.50;100.00
9423;BME280;65863;49.506;10.400;2023-11-19T01:52:03;97775.13;;;5.54;100.00
9423;BME280;65863;49.506;10.400;2023-11-19T01:54:48;97805.16;;;5.85;100.00
9423;BME280;65863;49.506;10.400;2023-11-19T01:57:32;97712.78;;;5.18;100.00
9423;BME280;65863;49.506;10.400;2023-11-19T02:00:18;97765.06;;;5.50;100.00
9423;BME280;65863;49.506;10.400;2023-11-19T02:03:03;97865.22;;;6.25;100.00
9423;BME280;65863;49.506;10.400;2023-11-19T02:05:49;97795.88;;;5.77;100.00
9423;BME280;65863;49.506;10.400;2023-11-19T02:08:34;97912.31;;;6.47;100.00
9423;BME280;65863;49.506;10.400;2023-11-19T02:11:18;97900.47;;;6.41;100.00
9423;BME280;65863;49.506;10.400;2023-11-19T02:14:02;97887.16;;;6.34;100.00
9423;BME280;65863;49.506;10.400;2023-11-19T02:16:51;97757.16;;;5.55;100.00
9423;BME280;65863;49.506;10.400;2023-11-19T02:19:35;97804.84;;;5.89;100.00
9423;BME280;65863;49.506;10.400;2023-11-19T02:22:19;97857.81;;;6.46;100.00
9423;BME280;65863;49.506;10.400;2023-11-19T02:25:07;97797.91;;;5.96;100.00
9423;BME280;65863;49.506;10.400;2023-11-19T02:27:57;97836.63;;;6.37;100.00
9423;BME280;65863;49.506;10.400;2023-11-19T02:30:43;97903.81;;;6.91;100.00
9423;BME280;65863;49.506;10.400;2023-11-19T02:33:27;97902.31;;;6.90;100.00
9423;BME280;65863;49.506;10.400;2023-11-19T02:36:11;97870.88;;;6.89;100.00
9423;BME280;65863;49.506;10.400;2023-11-19T02:38:55;97761.47;;;5.94;100.00
9423;BME280;65863;49.506;10.400;2023-11-19T02:41:39;97652.56;;;5.21;100.00
9423;BME280;65863;49.506;10.400;2023-11-19T02:44:24;97891.03;;;6.82;100.00
9423;BME280;65863;49.506;10.400;2023-11-19T02:47:08;97767.97;;;6.02;100.00
9423;BME280;65863;49.506;10.400;2023-11-19T02:49:53;97693.28;;;5.43;100.00
9423;BME280;65863;49.506;10.400;2023-11-19T02:52:37;97698.16;;;5.56;100.00
9423;BME280;65863;49.506;10.400;2023-11-19T02:55:22;97777.59;;;6.01;100.00
9423;BME280;65863;49.506;10.400;2023-11-19T02:58:08;97881.75;;;7.06;100.00
9423;BME280;65863;49.506;10.400;2023-11-19T03:01:04;97641.81;;;5.31;100.00
9423;BME280;65863;49.506;10.400;2023-11-19T03:03:57;97656.69;;;5.52;100.00
9423;BME280;65863;49.506;10.400;2023-11-19T03:06:41;97670.53;;;5.58;100.00
9423;BME280;65863;49.506;10.400;2023-11-19T03:09:26;97830.25;;;6.75;100.00
9423;BME280;65863;49.506;10.400;2023-11-19T03:12:10;97836.56;;;7.08;100.00
9423;BME280;65863;49.506;10.400;2023-11-19T03:14:55;97586.59;;;5.35;100.00
9423;BME280;65863;49.506;10.400;2023-11-19T03:17:41;97670.16;;;6.19;100.00
9423;BME280;65863;49.506;10.400;2023-11-19T03:20:26;97615.94;;;5.88;100.00
9423;BME280;65863;49.506;10.400;2023-11-19T03:23:12;97525.63;;;5.50;100.00
9423;BME280;65863;49.506;10.400;2023-11-19T03:25:56;97565.50;;;5.59;100.00
9423;BME280;65863;49.506;10.400;2023-11-19T03:28:41;97733.50;;;6.83;100.00
9423;BME280;65863;49.506;10.400;2023-11-19T03:31:25;97711.38;;;6.72;100.00
9423;BME280;65863;49.506;10.400;2023-11-19T03:34:09;97734.00;;;6.82;100.00
9423;BME280;65863;49.506;10.400;2023-11-19T03:36:54;97543.28;;;5.85;100.00
9423;BME280;65863;49.506;10.400;2023-11-19T03:39:38;97695.38;;;6.72;100.00
9423;BME280;65863;49.506;10.400;2023-11-19T03:42:22;97635.94;;;6.51;100.00
9423;BME280;65863;49.506;10.400;2023-11-19T03:45:07;97663.97;;;6.72;100.00
9423;BME280;65863;49.506;10.400;2023-11-19T03:47:54;97689.28;;;7.01;100.00
9423;BME280;65863;49.506;10.400;2023-11-19T03:50:39;97755.00;;;7.42;100.00
9423;BME280;65863;49.506;10.400;2023-11-19T03:53:24;97686.72;;;6.89;100.00
9423;BME280;65863;49.506;10.400;2023-11-19T03:56:09;97602.03;;;6.47;100.00
9423;BME280;65863;49.506;10.400;2023-11-19T03:58:54;97741.78;;;7.56;100.00
9423;BME280;65863;49.506;10.400;2023-11-19T04:01:39;97631.53;;;6.69;100.00
9423;BME280;65863;49.506;10.400;2023-11-19T04:04:23;97569.66;;;6.57;100.00
9423;BME280;65863;49.506;10.400;2023-11-19T04:07:08;97676.06;;;7.41;100.00
9423;BME280;65863;49.506;10.400;2023-11-19T04:09:52;97531.91;;;6.43;100.00
9423;BME280;65863;49.506;10.400;2023-11-19T04:12:37;97637.75;;;7.15;100.00
9423;BME280;65863;49.506;10.400;2023-11-19T04:15:22;97784.38;;;8.31;100.00
9423;BME280;65863;49.506;10.400;2023-11-19T04:18:06;97684.06;;;7.58;100.00
9423;BME280;65863;49.506;10.400;2023-11-19T04:20:51;97649.25;;;7.59;100.00
9423;BME280;65863;49.506;10.400;2023-11-19T04:23:35;97740.63;;;8.20;100.00
9423;BME280;65863;49.506;10.400;2023-11-19T04:26:19;97688.09;;;7.84;100.00
9423;BME280;65863;49.506;10.400;2023-11-19T04:29:03;97781.63;;;8.52;100.00
9423;BME280;65863;49.506;10.400;2023-11-19T04:31:47;97657.47;;;7.79;100.00
9423;BME280;65863;49.506;10.400;2023-11-19T04:34:32;97753.66;;;8.52;100.00
9423;BME280;65863;49.506;10.400;2023-11-19T04:37:16;97658.91;;;7.93;100.00
9423;BME280;65863;49.506;10.400;2023-11-19T04:40:01;97723.97;;;8.49;100.00
9423;BME280;65863;49.506;10.400;2023-11-19T04:42:45;97751.59;;;8.74;100.00
9423;BME280;65863;49.506;10.400;2023-11-19T04:45:29;97697.00;;;8.38;100.00
9423;BME280;65863;49.506;10.400;2023-11-19T04:48:13;97681.22;;;8.27;100.00
9423;BME280;65863;49.506;10.400;2023-11-19T04:50:57;97764.13;;;9.02;100.00
9423;BME280;65863;49.506;10.400;2023-11-19T04:53:41;97752.66;;;8.92;100.00
9423;BME280;65863;49.506;10.400;2023-11-19T04:56:25;97733.22;;;8.86;100.00
9423;BME280;65863;49.506;10.400;2023-11-19T04:59:09;97746.53;;;8.93;100.00
9423;BME280;65863;49.506;10.400;2023-11-19T05:01:53;97759.47;;;9.04;100.00
9423;BME280;65863;49.506;10.400;2023-11-19T05:04:37;97726.31;;;8.87;100.00
9423;BME280;65863;49.506;10.400;2023-11-19T05:07:21;97772.09;;;9.19;100.00
9423;BME280;65863;49.506;10.400;2023-11-19T05:10:05;97774.00;;;9.03;100.00
9423;BME280;65863;49.506;10.400;2023-11-19T05:12:51;97756.66;;;9.04;100.00
9423;BME280;65863;49.506;10.400;2023-11-19T05:15:36;97578.28;;;7.76;100.00
9423;BME280;65863;49.506;10.400;2023-11-19T05:18:20;97690.56;;;8.72;100.00
9423;BME280;65863;49.506;10.400;2023-11-19T05:21:04;97571.88;;;7.89;100.00
9423;BME280;65863;49.506;10.400;2023-11-19T05:23:48;97647.59;;;8.41;100.00
9423;BME280;65863;49.506;10.400;2023-11-19T05:26:33;97649.94;;;8.50;100.00
9423;BME280;65863;49.506;10.400;2023-11-19T05:29:17;97556.94;;;7.86;100.00
9423;BME280;65863;49.506;10.400;2023-11-19T05:32:01;97547.00;;;7.78;100.00
9423;BME280;65863;49.506;10.400;2023-11-19T05:34:45;97555.50;;;7.72;100.00
9423;BME280;65863;49.506;10.400;2023-11-19T05:37:30;97558.56;;;7.82;100.00
9423;BME280;65863;49.506;10.400;2023-11-19T05:40:14;97667.97;;;8.70;100.00
9423;BME280;65863;49.506;10.400;2023-11-19T05:42:59;97766.34;;;9.24;100.00
9423;BME280;65863;49.506;10.400;2023-11-19T05:45:43;97615.72;;;8.15;100.00
9423;BME280;65863;49.506;10.400;2023-11-19T05:48:27;97537.91;;;7.64;100.00
9423;BME280;65863;49.506;10.400;2023-11-19T05:51:12;97510.06;;;7.50;100.00
9423;BME280;65863;49.506;10.400;2023-11-19T05:53:58;97667.38;;;8.64;100.00
9423;BME280;65863;49.506;10.400;2023-11-19T05:56:49;97760.19;;;9.26;100.00
9423;BME280;65863;49.506;10.400;2023-11-19T05:59:33;97673.72;;;8.65;100.00
9423;BME280;65863;49.506;10.400;2023-11-19T06:02:18;97636.28;;;8.25;100.00
9423;BME280;65863;49.506;10.400;2023-11-19T06:05:03;97650.94;;;8.60;100.00
9423;BME280;65863;49.506;10.400;2023-11-19T06:07:49;97574.53;;;7.95;100.00
9423;BME280;65863;49.506;10.400;2023-11-19T06:10:35;97769.44;;;9.42;100.00
9423;BME280;65863;49.506;10.400;2023-11-19T06:13:20;97763.56;;;9.32;100.00
9423;BME280;65863;49.506;10.400;2023-11-19T06:16:06;97718.06;;;8.82;100.00
9423;BME280;65863;49.506;10.400;2023-11-19T06:18:54;97589.09;;;8.01;100.00
9423;BME280;65863;49.506;10.400;2023-11-19T06:21:38;97764.00;;;9.44;100.00
9423;BME280;65863;49.506;10.400;2023-11-19T06:24:23;97703.88;;;9.08;100.00
9423;BME280;65863;49.506;10.400;2023-11-19T06:27:06;97750.00;;;9.44;100.00
9423;BME280;65863;49.506;10.400;2023-11-19T06:29:50;97743.81;;;9.38;100.00
9423;BME280;65863;49.506;10.400;2023-11-19T06:32:34;97767.81;;;9.54;100.00
9423;BME280;65863;49.506;10.400;2023-11-19T06:35:18;97771.94;;;9.61;100.00
9423;BME280;65863;49.506;10.400;2023-11-19T06:38:03;97753.19;;;9.48;100.00
9423;BME280;65863;49.506;10.400;2023-11-19T06:40:48;97768.25;;;9.66;100.00
9423;BME280;65863;49.506;10.400;2023-11-19T06:43:32;97755.53;;;9.65;100.00
9423;BME280;65863;49.506;10.400;2023-11-19T06:46:18;97677.63;;;9.19;100.00
9423;BME280;65863;49.506;10.400;2023-11-19T06:49:02;97640.69;;;8.92;100.00
9423;BME280;65863;49.506;10.400;2023-11-19T06:51:46;97749.91;;;9.65;100.00
9423;BME280;65863;49.506;10.400;2023-11-19T06:54:30;97702.69;;;9.33;100.00
9423;BME280;65863;49.506;10.400;2023-11-19T06:57:14;97719.00;;;9.42;100.00
9423;BME280;65863;49.506;10.400;2023-11-19T06:59:58;97755.59;;;9.80;100.00
9423;BME280;65863;49.506;10.400;2023-11-19T07:02:43;97720.75;;;9.60;100.00
9423;BME280;65863;49.506;10.400;2023-11-19T07:05:28;97768.88;;;9.88;100.00
9423;BME280;65863;49.506;10.400;2023-11-19T07:08:12;97724.75;;;9.73;100.00
9423;BME280;65863;49.506;10.400;2023-11-19T07:10:56;97762.22;;;9.98;100.00
9423;BME280;65863;49.506;10.400;2023-11-19T07:13:40;97771.00;;;10.03;100.00
9423;BME280;65863;49.506;10.400;2023-11-19T07:16:25;97742.00;;;9.92;100.00
9423;BME280;65863;49.506;10.400;2023-11-19T07:19:09;97690.13;;;9.62;100.00
9423;BME280;65863;49.506;10.400;2023-11-19T07:21:53;97753.97;;;10.00;100.00
9423;BME280;65863;49.506;10.400;2023-11-19T07:24:41;97775.34;;;10.11;100.00
9423;BME280;65863;49.506;10.400;2023-11-19T07:27:25;97782.81;;;10.09;100.00
9423;BME280;65863;49.506;10.400;2023-11-19T07:30:09;97782.25;;;10.10;100.00
9423;BME280;65863;49.506;10.400;2023-11-19T07:32:54;97790.50;;;10.16;100.00
9423;BME280;65863;49.506;10.400;2023-11-19T07:35:38;97786.97;;;10.23;100.00
9423;BME280;65863;49.506;10.400;2023-11-19T07:38:22;97777.41;;;10.11;100.00
9423;BME280;65863;49.506;10.400;2023-11-19T07:41:06;97741.06;;;9.97;100.00
9423;BME280;65863;49.506;10.400;2023-11-19T07:43:52;97762.25;;;10.14;100.00
9423;BME280;65863;49.506;10.400;2023-11-19T07:46:37;97766.22;;;10.26;100.00
9423;BME280;65863;49.506;10.400;2023-11-19T07:49:21;97760.63;;;10.26;100.00
9423;BME280;65863;49.506;10.400;2023-11-19T07:52:05;97781.63;;;10.41;100.00
9423;BME280;65863;49.506;10.400;2023-11-19T07:54:49;97764.41;;;10.44;100.00
9423;BME280;65863;49.506;10.400;2023-11-19T07:57:33;97776.41;;;10.53;100.00
9423;BME280;65863;49.506;10.400;2023-11-19T08:00:17;97728.44;;;10.27;100.00
9423;BME280;65863;49.506;10.400;2023-11-19T08:03:01;97720.59;;;10.18;100.00
9423;BME280;65863;49.506;10.400;2023-11-19T08:05:45;97785.78;;;10.71;100.00
9423;BME280;65863;49.506;10.400;2023-11-19T08:08:58;97770.25;;;10.70;100.00
9423;BME280;65863;49.506;10.400;2023-11-19T08:11:43;97764.44;;;10.75;100.00
9423;BME280;65863;49.506;10.400;2023-11-19T08:14:27;97786.38;;;10.84;100.00
9423;BME280;65863;49.506;10.400;2023-11-19T08:17:12;97774.75;;;10.96;100.00
9423;BME280;65863;49.506;10.400;2023-11-19T08:19:56;97770.44;;;11.02;100.00
9423;BME280;65863;49.506;10.400;2023-11-19T08:22:40;97768.56;;;11.05;100.00
9423;BME280;65863;49.506;10.400;2023-11-19T08:25:24;97762.75;;;11.18;100.00
9423;BME280;65863;49.506;10.400;2023-11-19T08:28:08;97688.84;;;10.54;100.00
9423;BME280;65863;49.506;10.400;2023-11-19T08:30:52;97750.94;;;11.28;100.00
9423;BME280;65863;49.506;10.400;2023-11-19T08:33:36;97753.75;;;11.20;100.00
9423;BME280;65863;49.506;10.400;2023-11-19T08:36:20;97742.31;;;11.26;100.00
9423;BME280;65863;49.506;10.400;2023-11-19T08:39:05;97740.75;;;11.48;100.00
9423;BME280;65863;49.506;10.400;2023-11-19T08:41:48;97746.38;;;11.48;100.00
9423;BME280;65863;49.506;10.400;2023-11-19T08:44:32;97737.59;;;11.44;100.00
9423;BME280;65863;49.506;10.400;2023-11-19T08:47:17;97711.63;;;11.20;100.00
9423;BME280;65863;49.506;10.400;2023-11-19T08:50:04;97773.63;;;11.86;100.00
9423;BME280;65863;49.506;10.400;2023-11-19T08:52:48;97753.41;;;11.80;100.00
9423;BME280;65863;49.506;10.400;2023-11-19T08:55:32;97765.44;;;11.73;99.69
9423;BME280;65863;49.506;10.400;2023-11-19T08:58:16;97741.41;;;11.79;99.09
9423;BME280;65863;49.506;10.400;2023-11-19T09:01:00;97733.78;;;11.57;98.60
9423;BME280;65863;49.506;10.400;2023-11-19T09:03:44;97759.09;;;11.64;99.11
9423;BME280;65863;49.506;10.400;2023-11-19T09:06:28;97769.03;;;11.65;99.49
9423;BME280;65863;49.506;10.400;2023-11-19T09:09:12;97748.63;;;11.57;99.14
9423;BME280;65863;49.506;10.400;2023-11-19T09:11:56;97759.81;;;11.73;98.60
9423;BME280;65863;49.506;10.400;2023-11-19T09:14:40;97728.03;;;11.47;99.35
9423;BME280;65863;49.506;10.400;2023-11-19T09:17:25;97737.53;;;11.67;99.02
9423;BME280;65863;49.506;10.400;2023-11-19T09:20:10;97572.28;;;10.61;97.38
9423;BME280;65863;49.506;10.400;2023-11-19T09:22:56;97750.41;;;11.78;97.35
9423;BME280;65863;49.506;10.400;2023-11-19T09:25:40;97759.00;;;11.87;96.96
9423;BME280;65863;49.506;10.400;2023-11-19T09:28:24;97727.47;;;11.48;97.01
9423;BME280;65863;49.506;10.400;2023-11-19T09:31:15;97773.44;;;11.99;96.68
9423;BME280;65863;49.506;10.400;2023-11-19T09:34:00;97750.56;;;11.87;96.69
9423;BME280;65863;49.506;10.400;2023-11-19T09:36:44;97778.28;;;12.07;96.95
9423;BME280;65863;49.506;10.400;2023-11-19T09:39:28;97729.03;;;11.82;96.49
9423;BME280;65863;49.506;10.400;2023-11-19T09:42:12;97751.03;;;12.09;96.31
9423;BME280;65863;49.506;10.400;2023-11-19T09:44:57;97731.44;;;11.86;95.89
9423;BME280;65863;49.506;10.400;2023-11-19T09:47:44;97763.91;;;12.28;96.14
9423;BME280;65863;49.506;10.400;2023-11-19T09:50:29;97743.72;;;12.14;96.04
9423;BME280;65863;49.506;10.400;2023-11-19T09:53:13;97770.09;;;12.26;95.98
9423;BME280;65863;49.506;10.400;2023-11-19T09:55:59;97736.75;;;12.15;96.71
9423;BME280;65863;49.506;10.400;2023-11-19T09:58:44;97752.38;;;12.08;97.64
9423;BME280;65863;49.506;10.400;2023-11-19T10:01:29;97716.50;;;11.68;98.90
9423;BME280;65863;49.506;10.400;2023-11-19T10:04:17;97759.41;;;11.84;100.00
9423;BME280;65863;49.506;10.400;2023-11-19T10:07:02;97687.28;;;11.15;100.00
9423;BME280;65863;49.506;10.400;2023-11-19T10:09:46;97670.28;;;10.97;100.00
9423;BME280;65863;49.506;10.400;2023-11-19T10:12:31;97739.50;;;11.33;100.00
9423;BME280;65863;49.506;10.400;2023-11-19T10:15:23;97767.00;;;11.58;100.00
9423;BME280;65863;49.506;10.400;2023-11-19T10:18:10;97619.16;;;10.91;100.00
9423;BME280;65863;49.506;10.400;2023-11-19T10:20:54;97716.81;;;11.95;100.00
9423;BME280;65863;49.506;10.400;2023-11-19T10:23:57;97678.31;;;12.05;97.44
9423;BME280;65863;49.506;10.400;2023-11-19T10:26:43;97721.09;;;12.62;95.60
9423;BME280;65863;49.506;10.400;2023-11-19T10:29:29;97709.47;;;12.58;93.64
9423;BME280;65863;49.506;10.400;2023-11-19T10:32:13;97724.63;;;12.63;92.12
9423;BME280;65863;49.506;10.400;2023-11-19T10:35:07;97668.75;;;12.59;92.30
9423;BME280;65863;49.506;10.400;2023-11-19T10:37:51;97697.44;;;12.83;91.43
9423;BME280;65863;49.506;10.400;2023-11-19T10:40:38;97703.97;;;12.85;91.57
9423;BME280;65863;49.506;10.400;2023-11-19T10:43:25;97650.69;;;12.62;89.77
9423;BME280;65863;49.506;10.400;2023-11-19T10:46:11;97698.97;;;13.01;90.50
9423;BME280;65863;49.506;10.400;2023-11-19T10:48:55;97687.38;;;12.97;88.58
9423;BME280;65863;49.506;10.400;2023-11-19T10:51:45;97676.59;;;13.03;88.01
9423;BME280;65863;49.506;10.400;2023-11-19T10:54:30;97662.09;;;13.07;88.38
9423;BME280;65863;49.506;10.400;2023-11-19T10:57:20;97649.41;;;12.98;87.65
9423;BME280;65863;49.506;10.400;2023-11-19T11:00:05;97662.00;;;13.15;87.71
9423;BME280;65863;49.506;10.400;2023-11-19T11:03:00;97629.03;;;13.42;87.29
9423;BME280;65863;49.506;10.400;2023-11-19T11:05:48;97669.94;;;13.78;85.61
9423;BME280;65863;49.506;10.400;2023-11-19T11:08:36;97683.38;;;13.88;86.23
9423;BME280;65863;49.506;10.400;2023-11-19T11:11:21;97665.09;;;13.89;86.94
9423;BME280;65863;49.506;10.400;2023-11-19T11:14:07;97677.16;;;13.72;86.45
9423;BME280;65863;49.506;10.400;2023-11-19T11:16:53;97617.44;;;13.03;85.49
9423;BME280;65863;49.506;10.400;2023-11-19T11:19:37;97674.28;;;13.27;87.50
9423;BME280;65863;49.506;10.400;2023-11-19T11:22:22;97644.19;;;12.95;86.90
9423;BME280;65863;49.506;10.400;2023-11-19T11:25:28;97673.38;;;13.07;86.60
9423;BME280;65863;49.506;10.400;2023-11-19T11:37:45;97657.34;;;12.92;87.72
9423;BME280;65863;49.506;10.400;2023-11-19T11:40:32;97665.22;;;12.94;87.61
9423;BME280;65863;49.506;10.400;2023-11-19T11:43:44;97663.00;;;12.92;88.84
9423;BME280;65863;49.506;10.400;2023-11-19T11:49:15;97663.81;;;12.85;88.23
9423;BME280;65863;49.506;10.400;2023-11-19T11:52:08;97647.78;;;12.70;88.62
9423;BME280;65863;49.506;10.400;2023-11-19T11:55:04;97554.66;;;12.15;87.68
9423;BME280;65863;49.506;10.400;2023-11-19T11:57:48;97664.84;;;12.97;86.43
9423;BME280;65863;49.506;10.400;2023-11-19T12:00:33;97650.50;;;13.03;87.21
9423;BME280;65863;49.506;10.400;2023-11-19T12:03:21;97650.41;;;13.11;86.13
9423;BME280;65863;49.506;10.400;2023-11-19T12:06:06;97643.28;;;13.09;84.99
9423;BME280;65863;49.506;10.400;2023-11-19T12:08:52;97609.47;;;12.74;85.75
9423;BME280;65863;49.506;10.400;2023-11-19T12:11:37;97645.75;;;12.88;86.55
9423;BME280;65863;49.506;10.400;2023-11-19T12:17:48;97637.00;;;13.36;83.56
9423;BME280;65863;49.506;10.400;2023-11-19T12:20:33;97638.97;;;13.43;81.19
9423;BME280;65863;49.506;10.400;2023-11-19T12:23:19;97632.66;;;13.53;78.18
9423;BME280;65863;49.506;10.400;2023-11-19T12:26:03;97634.75;;;13.80;78.52
9423;BME280;65863;49.506;10.400;2023-11-19T12:28:58;97632.06;;;13.99;77.49
9423;BME280;65863;49.506;10.400;2023-11-19T12:31:44;97621.97;;;13.78;77.21
9423;BME280;65863;49.506;10.400;2023-11-19T12:34:28;97603.72;;;13.80;77.50
9423;BME280;65863;49.506;10.400;2023-11-19T12:37:12;97615.81;;;13.63;76.36
9423;BME280;65863;49.506;10.400;2023-11-19T12:39:57;97599.25;;;13.49;76.40
9423;BME280;65863;49.506;10.400;2023-11-19T12:42:41;97565.38;;;13.22;76.10
9423;BME280;65863;49.506;10.400;2023-11-19T12:45:34;97614.78;;;13.23;76.54
9423;BME280;65863;49.506;10.400;2023-11-19T12:48:19;97608.31;;;12.95;76.83
9423;BME280;65863;49.506;10.400;2023-11-19T12:51:03;97603.16;;;12.84;77.60
9423;BME280;65863;49.506;10.400;2023-11-19T12:53:48;97636.66;;;12.97;78.49
9423;BME280;65863;49.506;10.400;2023-11-19T12:56:38;97628.34;;;12.99;78.54
9423;BME280;65863;49.506;10.400;2023-11-19T12:59:22;97630.94;;;13.05;78.70
9423;BME280;65863;49.506;10.400;2023-11-19T13:02:06;97622.91;;;13.19;79.33
9423;BME280;65863;49.506;10.400;2023-11-19T13:04:50;97617.66;;;13.15;79.65
9423;BME280;65863;49.506;10.400;2023-11-19T13:07:34;97615.09;;;13.09;80.14
9423;BME280;65863;49.506;10.400;2023-11-19T13:10:18;97607.88;;;13.16;81.02
9423;BME280;65863;49.506;10.400;2023-11-19T13:13:07;97484.91;;;12.66;80.30
9423;BME280;65863;49.506;10.400;2023-11-19T13:16:02;97593.72;;;13.41;81.45
9423;BME280;65863;49.506;10.400;2023-11-19T13:18:46;97608.06;;;13.36;81.12
9423;BME280;65863;49.506;10.400;2023-11-19T13:21:31;97592.69;;;13.29;81.43
9423;BME280;65863;49.506;10.400;2023-11-19T13:24:15;97583.63;;;13.03;81.65
9423;BME280;65863;49.506;10.400;2023-11-19T13:26:59;97528.13;;;12.61;81.96
9423;BME280;65863;49.506;10.400;2023-11-19T13:29:43;97598.09;;;13.00;82.20
9423;BME280;65863;49.506;10.400;2023-11-19T13:32:27;97560.75;;;12.99;82.10
9423;BME280;65863;49.506;10.400;2023-11-19T13:35:15;97597.13;;;13.40;80.58
9423;BME280;65863;49.506;10.400;2023-11-19T13:37:59;97599.88;;;13.57;80.98
9423;BME280;65863;49.506;10.400;2023-11-19T13:40:43;97561.69;;;13.47;80.12
9423;BME280;65863;49.506;10.400;2023-11-19T13:43:27;97551.56;;;13.43;79.51
9423;BME280;65863;49.506;10.400;2023-11-19T13:46:12;97592.44;;;13.52;78.21
9423;BME280;65863;49.506;10.400;2023-11-19T13:48:56;97569.13;;;13.52;78.13
9423;BME280;65863;49.506;10.400;2023-11-19T13:51:40;97546.44;;;13.32;77.14
9423;BME280;65863;49.506;10.400;2023-11-19T13:54:24;97584.28;;;13.56;77.70
9423;BME280;65863;49.506;10.400;2023-11-19T13:57:07;97578.25;;;13.60;75.26
9423;BME280;65863;49.506;10.400;2023-11-19T13:59:52;97575.75;;;13.64;73.84
9423;BME280;65863;49.506;10.400;2023-11-19T14:02:36;97559.03;;;13.49;74.13
9423;BME280;65863;49.506;10.400;2023-11-19T14:05:20;97578.06;;;13.58;72.26
9423;BME280;65863;49.506;10.400;2023-11-19T14:08:05;97482.03;;;13.01;73.07
9423;BME280;65863;49.506;10.400;2023-11-19T14:10:55;97600.09;;;13.69;73.83
9423;BME280;65863;49.506;10.400;2023-11-19T14:13:39;97585.16;;;13.76;73.22
9423;BME280;65863;49.506;10.400;2023-11-19T14:16:27;97573.63;;;13.82;72.37
9423;BME280;65863;49.506;10.400;2023-11-19T14:19:11;97503.50;;;13.41;72.19
9423;BME280;65863;49.506;10.400;2023-11-19T14:21:55;97557.66;;;13.67;72.97
9423;BME280;65863;49.506;10.400;2023-11-19T14:24:39;97568.50;;;13.71;73.06
9423;BME280;65863;49.506;10.400;2023-11-19T14:27:26;97570.69;;;13.63;73.94
9423;BME280;65863;49.506;10.400;2023-11-19T14:30:12;97569.19;;;13.62;74.24
9423;BME280;65863;49.506;10.400;2023-11-19T14:32:57;97540.47;;;13.28;73.69
9423;BME280;65863;49.506;10.400;2023-11-19T14:35:41;97562.81;;;13.16;74.71
9423;BME280;65863;49.506;10.400;2023-11-19T14:38:24;97574.00;;;13.06;76.15
9423;BME280;65863;49.506;10.400;2023-11-19T14:41:08;97574.50;;;12.95;76.91
9423;BME280;65863;49.506;10.400;2023-11-19T14:43:52;97586.19;;;12.91;77.64
9423;BME280;65863;49.506;10.400;2023-11-19T14:46:36;97560.59;;;12.80;77.65
9423;BME280;65863;49.506;10.400;2023-11-19T14:49:21;97596.13;;;12.92;77.87
9423;BME280;65863;49.506;10.400;2023-11-19T14:52:05;97575.91;;;12.86;76.47